sensor_id;sensor_type;location;lat;lon;timestamp;P1;durP1;ratioP1;P2;durP2;ratioP2
75437;SDS011;64015;49.392;15.582;2023-01-20T00:00:03;10.15;;;4.38;;
75437;SDS011;64015;49.392;15.582;2023-01-20T00:02:31;14.88;;;5.43;;
75437;SDS011;64015;49.392;15.582;2023-01-20T00:04:57;12.85;;;4.90;;
75437;SDS011;64015;49.392;15.582;2023-01-20T00:07:23;12.63;;;4.80;;
75437;SDS011;64015;49.392;15.582;2023-01-20T00:09:48;11.95;;;4.32;;
75437;SDS011;64015;49.392;15.582;2023-01-20T00:12:14;8.88;;;3.92;;
75437;SDS011;64015;49.392;15.582;2023-01-20T00:14:40;10.13;;;4.32;;
75437;SDS011;64015;49.392;15.582;2023-01-20T00:17:05;16.35;;;5.18;;
75437;SDS011;64015;49.392;15.582;2023-01-20T00:19:31;10.35;;;4.68;;
75437;SDS011;64015;49.392;15.582;2023-01-20T00:21:56;8.15;;;4.40;;
75437;SDS011;64015;49.392;15.582;2023-01-20T00:24:22;10.52;;;5.00;;
75437;SDS011;64015;49.392;15.582;2023-01-20T00:26:48;11.35;;;5.35;;
75437;SDS011;64015;49.392;15.582;2023-01-20T00:29:13;9.70;;;4.65;;
75437;SDS011;64015;49.392;15.582;2023-01-20T00:31:39;8.60;;;4.00;;
75437;SDS011;64015;49.392;15.582;2023-01-20T00:34:05;9.48;;;3.72;;
75437;SDS011;64015;49.392;15.582;2023-01-20T00:36:30;10.88;;;4.20;;
75437;SDS011;64015;49.392;15.582;2023-01-20T00:38:57;9.38;;;3.70;;
75437;SDS011;64015;49.392;15.582;2023-01-20T00:41:23;10.05;;;4.32;;
75437;SDS011;64015;49.392;15.582;2023-01-20T00:43:49;9.98;;;4.35;;
75437;SDS011;64015;49.392;15.582;2023-01-20T00:46:14;7.70;;;3.88;;
75437;SDS011;64015;49.392;15.582;2023-01-20T00:48:40;10.10;;;3.78;;
75437;SDS011;64015;49.392;15.582;2023-01-20T00:51:26;8.45;;;4.13;;
75437;SDS011;64015;49.392;15.582;2023-01-20T00:54:17;12.13;;;4.03;;
75437;SDS011;64015;49.392;15.582;2023-01-20T00:56:43;8.38;;;3.85;;
75437;SDS011;64015;49.392;15.582;2023-01-20T00:59:08;9.70;;;3.90;;
75437;SDS011;64015;49.392;15.582;2023-01-20T01:01:34;6.97;;;3.25;;
75437;SDS011;64015;49.392;15.582;2023-01-20T01:04:00;11.90;;;4.05;;
75437;SDS011;64015;49.392;15.582;2023-01-20T01:06:26;11.20;;;4.43;;
75437;SDS011;64015;49.392;15.582;2023-01-20T01:08:51;11.13;;;4.88;;
75437;SDS011;64015;49.392;15.582;2023-01-20T01:11:17;11.57;;;4.57;;
75437;SDS011;64015;49.392;15.582;2023-01-20T01:13:43;10.13;;;5.20;;
75437;SDS011;64015;49.392;15.582;2023-01-20T01:16:12;9.02;;;4.10;;
75437;SDS011;64015;49.392;15.582;2023-01-20T01:18:39;10.00;;;4.32;;
75437;SDS011;64015;49.392;15.582;2023-01-20T01:21:06;9.68;;;4.15;;
75437;SDS011;64015;49.392;15.582;2023-01-20T01:23:36;10.02;;;3.30;;
75437;SDS011;64015;49.392;15.582;2023-01-20T01:26:02;7.05;;;3.38;;
75437;SDS011;64015;49.392;15.582;2023-01-20T01:28:28;8.88;;;3.92;;
75437;SDS011;64015;49.392;15.582;2023-01-20T01:30:53;7.75;;;3.88;;
75437;SDS011;64015;49.392;15.582;2023-01-20T01:33:19;8.45;;;3.80;;
75437;SDS011;64015;49.392;15.582;2023-01-20T01:35:53;8.00;;;3.67;;
75437;SDS011;64015;49.392;15.582;2023-01-20T01:38:19;8.82;;;3.65;;
75437;SDS011;64015;49.392;15.582;2023-01-20T01:40:48;9.48;;;3.88;;
75437;SDS011;64015;49.392;15.582;2023-01-20T01:43:23;6.88;;;3.10;;
75437;SDS011;64015;49.392;15.582;2023-01-20T01:45:50;8.43;;;3.97;;
75437;SDS011;64015;49.392;15.582;2023-01-20T01:48:15;7.90;;;4.03;;
75437;SDS011;64015;49.392;15.582;2023-01-20T01:50:47;6.45;;;3.22;;
75437;SDS011;64015;49.392;15.582;2023-01-20T01:53:15;8.88;;;3.55;;
75437;SDS011;64015;49.392;15.582;2023-01-20T01:55:43;10.63;;;4.72;;
75437;SDS011;64015;49.392;15.582;2023-01-20T01:58:14;8.02;;;3.88;;
75437;SDS011;64015;49.392;15.582;2023-01-20T02:00:42;10.20;;;4.35;;
75437;SDS011;64015;49.392;15.582;2023-01-20T02:03:08;10.50;;;4.03;;
75437;SDS011;64015;49.392;15.582;2023-01-20T02:05:35;15.13;;;4.72;;
75437;SDS011;64015;49.392;15.582;2023-01-20T02:08:04;11.27;;;4.45;;
75437;SDS011;64015;49.392;15.582;2023-01-20T02:12:57;8.27;;;3.83;;
75437;SDS011;64015;49.392;15.582;2023-01-20T02:15:26;8.50;;;3.38;;
75437;SDS011;64015;49.392;15.582;2023-01-20T02:18:06;8.70;;;4.25;;
75437;SDS011;64015;49.392;15.582;2023-01-20T02:34:14;9.23;;;3.92;;
75437;SDS011;64015;49.392;15.582;2023-01-20T02:36:55;9.05;;;4.18;;
75437;SDS011;64015;49.392;15.582;2023-01-20T02:47:16;11.05;;;4.32;;
75437;SDS011;64015;49.392;15.582;2023-01-20T02:49:53;8.93;;;3.83;;
75437;SDS011;64015;49.392;15.582;2023-01-20T02:54:58;7.47;;;3.00;;
75437;SDS011;64015;49.392;15.582;2023-01-20T02:57:29;9.38;;;4.60;;
75437;SDS011;64015;49.392;15.582;2023-01-20T03:00:21;13.25;;;4.63;;
75437;SDS011;64015;49.392;15.582;2023-01-20T03:02:54;10.57;;;4.15;;
75437;SDS011;64015;49.392;15.582;2023-01-20T03:05:25;10.85;;;4.28;;
75437;SDS011;64015;49.392;15.582;2023-01-20T03:07:57;8.02;;;4.40;;
75437;SDS011;64015;49.392;15.582;2023-01-20T03:10:28;10.25;;;3.80;;
75437;SDS011;64015;49.392;15.582;2023-01-20T03:12:57;10.05;;;4.70;;
75437;SDS011;64015;49.392;15.582;2023-01-20T03:16:31;8.60;;;4.40;;
75437;SDS011;64015;49.392;15.582;2023-01-20T03:18:27;10.52;;;4.60;;
75437;SDS011;64015;49.392;15.582;2023-01-20T03:20:54;12.23;;;4.68;;
75437;SDS011;64015;49.392;15.582;2023-01-20T03:23:22;11.02;;;4.88;;
75437;SDS011;64015;49.392;15.582;2023-01-20T03:25:49;11.05;;;4.53;;
75437;SDS011;64015;49.392;15.582;2023-01-20T03:28:15;9.48;;;5.13;;
75437;SDS011;64015;49.392;15.582;2023-01-20T03:30:41;10.77;;;4.65;;
75437;SDS011;64015;49.392;15.582;2023-01-20T03:33:06;8.35;;;4.13;;
75437;SDS011;64015;49.392;15.582;2023-01-20T03:35:34;9.10;;;4.55;;
75437;SDS011;64015;49.392;15.582;2023-01-20T03:38:02;12.55;;;5.35;;
75437;SDS011;64015;49.392;15.582;2023-01-20T03:40:29;10.35;;;4.03;;
75437;SDS011;64015;49.392;15.582;2023-01-20T03:43:09;11.95;;;4.78;;
75437;SDS011;64015;49.392;15.582;2023-01-20T03:53:54;10.85;;;5.15;;
75437;SDS011;64015;49.392;15.582;2023-01-20T03:56:30;11.57;;;5.55;;
75437;SDS011;64015;49.392;15.582;2023-01-20T03:59:02;14.88;;;5.38;;
75437;SDS011;64015;49.392;15.582;2023-01-20T04:01:33;13.55;;;5.45;;
75437;SDS011;64015;49.392;15.582;2023-01-20T04:04:01;13.18;;;5.47;;
75437;SDS011;64015;49.392;15.582;2023-01-20T04:06:29;14.98;;;5.70;;
75437;SDS011;64015;49.392;15.582;2023-01-20T04:09:04;13.07;;;5.88;;
75437;SDS011;64015;49.392;15.582;2023-01-20T04:11:34;11.85;;;6.40;;
75437;SDS011;64015;49.392;15.582;2023-01-20T04:14:00;12.60;;;5.50;;
75437;SDS011;64015;49.392;15.582;2023-01-20T04:16:26;11.05;;;5.45;;
75437;SDS011;64015;49.392;15.582;2023-01-20T04:18:52;14.57;;;5.78;;
75437;SDS011;64015;49.392;15.582;2023-01-20T04:21:21;13.15;;;5.97;;
75437;SDS011;64015;49.392;15.582;2023-01-20T04:23:50;14.55;;;7.00;;
75437;SDS011;64015;49.392;15.582;2023-01-20T04:26:21;14.73;;;6.53;;
75437;SDS011;64015;49.392;15.582;2023-01-20T04:28:47;11.95;;;6.00;;
75437;SDS011;64015;49.392;15.582;2023-01-20T04:31:13;15.73;;;6.05;;
75437;SDS011;64015;49.392;15.582;2023-01-20T04:33:39;11.05;;;4.93;;
75437;SDS011;64015;49.392;15.582;2023-01-20T04:36:05;9.65;;;4.13;;
75437;SDS011;64015;49.392;15.582;2023-01-20T04:38:31;9.55;;;5.07;;
75437;SDS011;64015;49.392;15.582;2023-01-20T04:40:57;13.27;;;5.20;;
75437;SDS011;64015;49.392;15.582;2023-01-20T04:43:23;14.68;;;6.00;;
75437;SDS011;64015;49.392;15.582;2023-01-20T04:45:48;14.90;;;5.55;;
75437;SDS011;64015;49.392;15.582;2023-01-20T04:48:14;11.35;;;4.75;;
75437;SDS011;64015;49.392;15.582;2023-01-20T04:50:40;11.75;;;4.70;;
75437;SDS011;64015;49.392;15.582;2023-01-20T04:53:06;12.45;;;5.28;;
75437;SDS011;64015;49.392;15.582;2023-01-20T04:55:35;11.15;;;5.25;;
75437;SDS011;64015;49.392;15.582;2023-01-20T04:58:00;13.25;;;5.57;;
75437;SDS011;64015;49.392;15.582;2023-01-20T05:00:26;12.07;;;5.55;;
75437;SDS011;64015;49.392;15.582;2023-01-20T05:02:55;10.45;;;5.38;;
75437;SDS011;64015;49.392;15.582;2023-01-20T05:05:22;11.45;;;4.32;;
75437;SDS011;64015;49.392;15.582;2023-01-20T05:07:50;11.82;;;5.32;;
75437;SDS011;64015;49.392;15.582;2023-01-20T05:10:16;14.13;;;6.18;;
75437;SDS011;64015;49.392;15.582;2023-01-20T05:12:42;12.80;;;5.38;;
75437;SDS011;64015;49.392;15.582;2023-01-20T05:15:08;11.48;;;5.38;;
75437;SDS011;64015;49.392;15.582;2023-01-20T05:17:33;14.13;;;6.82;;
75437;SDS011;64015;49.392;15.582;2023-01-20T05:19:59;12.77;;;5.10;;
75437;SDS011;64015;49.392;15.582;2023-01-20T05:22:25;14.40;;;5.75;;
75437;SDS011;64015;49.392;15.582;2023-01-20T05:24:51;11.77;;;5.15;;
75437;SDS011;64015;49.392;15.582;2023-01-20T05:27:16;14.93;;;6.25;;
75437;SDS011;64015;49.392;15.582;2023-01-20T05:29:42;15.27;;;8.43;;
75437;SDS011;64015;49.392;15.582;2023-01-20T05:32:07;13.75;;;7.60;;
75437;SDS011;64015;49.392;15.582;2023-01-20T05:34:33;17.92;;;8.18;;
75437;SDS011;64015;49.392;15.582;2023-01-20T05:36:58;14.38;;;6.97;;
75437;SDS011;64015;49.392;15.582;2023-01-20T05:39:24;12.82;;;6.70;;
75437;SDS011;64015;49.392;15.582;2023-01-20T05:41:50;15.27;;;5.65;;
75437;SDS011;64015;49.392;15.582;2023-01-20T05:44:15;16.08;;;6.30;;
75437;SDS011;64015;49.392;15.582;2023-01-20T05:46:41;15.32;;;5.82;;
75437;SDS011;64015;49.392;15.582;2023-01-20T05:49:10;14.45;;;6.30;;
75437;SDS011;64015;49.392;15.582;2023-01-20T05:51:36;11.35;;;5.57;;
75437;SDS011;64015;49.392;15.582;2023-01-20T05:54:03;11.50;;;5.93;;
75437;SDS011;64015;49.392;15.582;2023-01-20T05:56:28;14.65;;;6.28;;
75437;SDS011;64015;49.392;15.582;2023-01-20T05:58:54;13.88;;;6.13;;
75437;SDS011;64015;49.392;15.582;2023-01-20T06:01:20;14.57;;;6.30;;
75437;SDS011;64015;49.392;15.582;2023-01-20T06:03:46;18.85;;;5.20;;
75437;SDS011;64015;49.392;15.582;2023-01-20T06:06:12;13.80;;;5.82;;
75437;SDS011;64015;49.392;15.582;2023-01-20T06:08:40;10.15;;;4.97;;
75437;SDS011;64015;49.392;15.582;2023-01-20T06:11:06;10.25;;;5.47;;
75437;SDS011;64015;49.392;15.582;2023-01-20T06:13:32;17.17;;;5.43;;
75437;SDS011;64015;49.392;15.582;2023-01-20T06:15:59;9.15;;;4.25;;
75437;SDS011;64015;49.392;15.582;2023-01-20T06:18:25;16.08;;;5.20;;
75437;SDS011;64015;49.392;15.582;2023-01-20T06:20:51;13.77;;;5.63;;
75437;SDS011;64015;49.392;15.582;2023-01-20T06:23:20;30.77;;;8.73;;
75437;SDS011;64015;49.392;15.582;2023-01-20T06:25:46;33.83;;;9.82;;
75437;SDS011;64015;49.392;15.582;2023-01-20T06:28:11;33.47;;;11.35;;
75437;SDS011;64015;49.392;15.582;2023-01-20T06:30:37;46.78;;;13.18;;
75437;SDS011;64015;49.392;15.582;2023-01-20T06:33:03;37.10;;;12.13;;
75437;SDS011;64015;49.392;15.582;2023-01-20T06:35:34;32.60;;;10.23;;
75437;SDS011;64015;49.392;15.582;2023-01-20T06:38:00;22.23;;;9.18;;
75437;SDS011;64015;49.392;15.582;2023-01-20T06:40:26;20.65;;;8.60;;
75437;SDS011;64015;49.392;15.582;2023-01-20T06:42:52;22.85;;;8.77;;
75437;SDS011;64015;49.392;15.582;2023-01-20T06:45:17;24.33;;;9.20;;
75437;SDS011;64015;49.392;15.582;2023-01-20T06:47:46;22.80;;;8.02;;
75437;SDS011;64015;49.392;15.582;2023-01-20T06:50:12;18.60;;;6.93;;
75437;SDS011;64015;49.392;15.582;2023-01-20T06:52:38;16.52;;;8.35;;
75437;SDS011;64015;49.392;15.582;2023-01-20T06:55:04;17.10;;;6.75;;
75437;SDS011;64015;49.392;15.582;2023-01-20T06:57:30;19.05;;;7.32;;
75437;SDS011;64015;49.392;15.582;2023-01-20T06:59:55;15.68;;;6.50;;
75437;SDS011;64015;49.392;15.582;2023-01-20T07:02:23;13.38;;;6.38;;
75437;SDS011;64015;49.392;15.582;2023-01-20T07:04:50;16.23;;;5.25;;
75437;SDS011;64015;49.392;15.582;2023-01-20T07:07:17;14.48;;;6.25;;
75437;SDS011;64015;49.392;15.582;2023-01-20T07:09:42;14.15;;;5.85;;
75437;SDS011;64015;49.392;15.582;2023-01-20T07:12:08;13.68;;;5.85;;
75437;SDS011;64015;49.392;15.582;2023-01-20T07:14:33;13.75;;;5.65;;
75437;SDS011;64015;49.392;15.582;2023-01-20T07:16:59;12.80;;;6.05;;
75437;SDS011;64015;49.392;15.582;2023-01-20T07:19:24;16.15;;;6.03;;
75437;SDS011;64015;49.392;15.582;2023-01-20T07:21:50;14.80;;;6.18;;
75437;SDS011;64015;49.392;15.582;2023-01-20T07:24:16;20.20;;;8.50;;
75437;SDS011;64015;49.392;15.582;2023-01-20T07:26:42;19.45;;;8.27;;
75437;SDS011;64015;49.392;15.582;2023-01-20T07:29:07;25.52;;;7.50;;
75437;SDS011;64015;49.392;15.582;2023-01-20T07:31:33;15.13;;;7.90;;
75437;SDS011;64015;49.392;15.582;2023-01-20T07:33:59;25.20;;;10.02;;
75437;SDS011;64015;49.392;15.582;2023-01-20T07:36:25;33.78;;;12.35;;
75437;SDS011;64015;49.392;15.582;2023-01-20T07:38:51;29.50;;;13.23;;
75437;SDS011;64015;49.392;15.582;2023-01-20T07:41:18;27.15;;;11.25;;
75437;SDS011;64015;49.392;15.582;2023-01-20T07:43:45;20.90;;;10.20;;
75437;SDS011;64015;49.392;15.582;2023-01-20T07:46:12;26.20;;;10.60;;
75437;SDS011;64015;49.392;15.582;2023-01-20T07:48:38;22.27;;;10.15;;
75437;SDS011;64015;49.392;15.582;2023-01-20T07:51:05;28.63;;;10.95;;
75437;SDS011;64015;49.392;15.582;2023-01-20T07:53:34;26.35;;;10.70;;
75437;SDS011;64015;49.392;15.582;2023-01-20T07:56:05;23.45;;;10.43;;
75437;SDS011;64015;49.392;15.582;2023-01-20T07:58:35;21.73;;;10.13;;
75437;SDS011;64015;49.392;15.582;2023-01-20T08:01:05;21.08;;;9.38;;
75437;SDS011;64015;49.392;15.582;2023-01-20T08:03:35;18.27;;;8.77;;
75437;SDS011;64015;49.392;15.582;2023-01-20T08:06:05;18.02;;;8.02;;
75437;SDS011;64015;49.392;15.582;2023-01-20T08:08:32;20.02;;;8.45;;
75437;SDS011;64015;49.392;15.582;2023-01-20T08:10:59;19.67;;;8.30;;
75437;SDS011;64015;49.392;15.582;2023-01-20T08:13:26;17.20;;;8.43;;
75437;SDS011;64015;49.392;15.582;2023-01-20T08:15:52;21.92;;;9.43;;
75437;SDS011;64015;49.392;15.582;2023-01-20T08:18:17;18.30;;;9.10;;
75437;SDS011;64015;49.392;15.582;2023-01-20T08:20:43;18.20;;;8.02;;
75437;SDS011;64015;49.392;15.582;2023-01-20T08:23:09;22.48;;;9.55;;
75437;SDS011;64015;49.392;15.582;2023-01-20T08:25:34;20.90;;;8.90;;
75437;SDS011;64015;49.392;15.582;2023-01-20T08:28:00;20.00;;;9.25;;
75437;SDS011;64015;49.392;15.582;2023-01-20T08:30:26;28.85;;;11.48;;
75437;SDS011;64015;49.392;15.582;2023-01-20T08:32:51;22.65;;;10.25;;
75437;SDS011;64015;49.392;15.582;2023-01-20T08:35:17;15.50;;;8.45;;
75437;SDS011;64015;49.392;15.582;2023-01-20T08:37:43;16.48;;;7.22;;
75437;SDS011;64015;49.392;15.582;2023-01-20T08:40:10;14.40;;;7.28;;
75437;SDS011;64015;49.392;15.582;2023-01-20T08:42:36;16.00;;;7.90;;
75437;SDS011;64015;49.392;15.582;2023-01-20T08:45:03;13.15;;;6.18;;
75437;SDS011;64015;49.392;15.582;2023-01-20T08:47:31;18.17;;;7.63;;
75437;SDS011;64015;49.392;15.582;2023-01-20T08:50:01;16.88;;;7.65;;
75437;SDS011;64015;49.392;15.582;2023-01-20T08:52:28;19.25;;;7.80;;
75437;SDS011;64015;49.392;15.582;2023-01-20T08:54:54;20.02;;;9.15;;
75437;SDS011;64015;49.392;15.582;2023-01-20T08:57:23;21.20;;;9.05;;
75437;SDS011;64015;49.392;15.582;2023-01-20T08:59:50;19.25;;;9.15;;
75437;SDS011;64015;49.392;15.582;2023-01-20T09:02:15;20.08;;;8.77;;
75437;SDS011;64015;49.392;15.582;2023-01-20T09:04:41;16.60;;;7.28;;
75437;SDS011;64015;49.392;15.582;2023-01-20T09:07:09;11.50;;;5.20;;
75437;SDS011;64015;49.392;15.582;2023-01-20T09:09:35;13.52;;;6.15;;
75437;SDS011;64015;49.392;15.582;2023-01-20T09:12:02;8.77;;;5.50;;
75437;SDS011;64015;49.392;15.582;2023-01-20T09:14:29;13.48;;;6.25;;
75437;SDS011;64015;49.392;15.582;2023-01-20T09:16:55;13.13;;;5.22;;
75437;SDS011;64015;49.392;15.582;2023-01-20T09:19:21;13.60;;;5.38;;
75437;SDS011;64015;49.392;15.582;2023-01-20T09:21:47;16.15;;;5.93;;
75437;SDS011;64015;49.392;15.582;2023-01-20T09:24:13;8.82;;;4.68;;
75437;SDS011;64015;49.392;15.582;2023-01-20T09:26:39;11.32;;;6.13;;
75437;SDS011;64015;49.392;15.582;2023-01-20T09:29:06;11.52;;;5.72;;
75437;SDS011;64015;49.392;15.582;2023-01-20T09:31:35;12.43;;;5.60;;
75437;SDS011;64015;49.392;15.582;2023-01-20T09:34:14;11.85;;;5.03;;
75437;SDS011;64015;49.392;15.582;2023-01-20T09:36:44;10.95;;;5.20;;
75437;SDS011;64015;49.392;15.582;2023-01-20T09:39:11;13.52;;;5.63;;
75437;SDS011;64015;49.392;15.582;2023-01-20T09:41:57;10.32;;;5.57;;
75437;SDS011;64015;49.392;15.582;2023-01-20T09:45:02;9.63;;;4.80;;
75437;SDS011;64015;49.392;15.582;2023-01-20T09:47:46;10.45;;;4.70;;
75437;SDS011;64015;49.392;15.582;2023-01-20T09:50:18;8.52;;;5.07;;
75437;SDS011;64015;49.392;15.582;2023-01-20T09:56:00;15.13;;;4.63;;
75437;SDS011;64015;49.392;15.582;2023-01-20T10:01:23;10.77;;;5.80;;
75437;SDS011;64015;49.392;15.582;2023-01-20T10:06:44;10.77;;;4.07;;
75437;SDS011;64015;49.392;15.582;2023-01-20T10:09:32;11.10;;;4.53;;
75437;SDS011;64015;49.392;15.582;2023-01-20T10:12:09;10.52;;;5.00;;
75437;SDS011;64015;49.392;15.582;2023-01-20T10:14:47;9.93;;;4.30;;
75437;SDS011;64015;49.392;15.582;2023-01-20T10:17:21;13.20;;;4.32;;
75437;SDS011;64015;49.392;15.582;2023-01-20T10:22:41;10.65;;;4.97;;
75437;SDS011;64015;49.392;15.582;2023-01-20T10:25:12;11.05;;;5.25;;
75437;SDS011;64015;49.392;15.582;2023-01-20T10:27:44;12.82;;;4.90;;
75437;SDS011;64015;49.392;15.582;2023-01-20T10:30:20;9.32;;;4.93;;
75437;SDS011;64015;49.392;15.582;2023-01-20T10:32:57;9.23;;;4.57;;
75437;SDS011;64015;49.392;15.582;2023-01-20T10:35:30;14.95;;;5.10;;
75437;SDS011;64015;49.392;15.582;2023-01-20T10:38:01;10.55;;;5.35;;
75437;SDS011;64015;49.392;15.582;2023-01-20T10:40:33;8.65;;;5.60;;
75437;SDS011;64015;49.392;15.582;2023-01-20T10:43:12;10.30;;;4.72;;
75437;SDS011;64015;49.392;15.582;2023-01-20T10:48:53;11.10;;;5.07;;
75437;SDS011;64015;49.392;15.582;2023-01-20T10:51:50;23.67;;;6.22;;
75437;SDS011;64015;49.392;15.582;2023-01-20T10:54:28;16.08;;;6.35;;
75437;SDS011;64015;49.392;15.582;2023-01-20T10:57:03;9.90;;;5.25;;
75437;SDS011;64015;49.392;15.582;2023-01-20T10:59:31;11.57;;;5.38;;
75437;SDS011;64015;49.392;15.582;2023-01-20T11:02:21;12.35;;;6.10;;
75437;SDS011;64015;49.392;15.582;2023-01-20T11:04:56;13.10;;;6.15;;
75437;SDS011;64015;49.392;15.582;2023-01-20T11:07:25;12.63;;;5.95;;
75437;SDS011;64015;49.392;15.582;2023-01-20T11:09:53;10.85;;;5.43;;
75437;SDS011;64015;49.392;15.582;2023-01-20T11:12:23;11.52;;;5.85;;
75437;SDS011;64015;49.392;15.582;2023-01-20T11:14:52;13.25;;;5.53;;
75437;SDS011;64015;49.392;15.582;2023-01-20T11:17:20;9.27;;;5.50;;
75437;SDS011;64015;49.392;15.582;2023-01-20T11:19:50;14.27;;;6.03;;
75437;SDS011;64015;49.392;15.582;2023-01-20T11:22:36;13.57;;;5.53;;
75437;SDS011;64015;49.392;15.582;2023-01-20T11:25:02;13.00;;;5.45;;
75437;SDS011;64015;49.392;15.582;2023-01-20T11:27:43;8.52;;;4.57;;
75437;SDS011;64015;49.392;15.582;2023-01-20T11:30:27;12.52;;;6.28;;
75437;SDS011;64015;49.392;15.582;2023-01-20T11:35:33;11.20;;;5.10;;
75437;SDS011;64015;49.392;15.582;2023-01-20T11:37:59;8.27;;;4.68;;
75437;SDS011;64015;49.392;15.582;2023-01-20T11:40:54;10.02;;;4.45;;
75437;SDS011;64015;49.392;15.582;2023-01-20T11:49:11;8.75;;;3.78;;
75437;SDS011;64015;49.392;15.582;2023-01-20T11:51:44;8.60;;;3.95;;
75437;SDS011;64015;49.392;15.582;2023-01-20T11:54:17;8.30;;;4.47;;
75437;SDS011;64015;49.392;15.582;2023-01-20T11:56:52;8.77;;;4.18;;
75437;SDS011;64015;49.392;15.582;2023-01-20T11:59:26;11.57;;;4.38;;
75437;SDS011;64015;49.392;15.582;2023-01-20T12:01:57;8.82;;;4.97;;
75437;SDS011;64015;49.392;15.582;2023-01-20T12:07:08;8.88;;;4.85;;
75437;SDS011;64015;49.392;15.582;2023-01-20T12:09:39;7.38;;;3.17;;
75437;SDS011;64015;49.392;15.582;2023-01-20T12:12:14;8.77;;;3.65;;
75437;SDS011;64015;49.392;15.582;2023-01-20T12:15:03;11.85;;;3.97;;
75437;SDS011;64015;49.392;15.582;2023-01-20T12:17:47;8.43;;;4.05;;
75437;SDS011;64015;49.392;15.582;2023-01-20T12:28:36;9.95;;;4.75;;
75437;SDS011;64015;49.392;15.582;2023-01-20T12:31:08;8.00;;;3.55;;
75437;SDS011;64015;49.392;15.582;2023-01-20T12:33:36;9.20;;;3.67;;
75437;SDS011;64015;49.392;15.582;2023-01-20T13:01:17;8.10;;;3.70;;
75437;SDS011;64015;49.392;15.582;2023-01-20T13:09:23;10.35;;;3.95;;
75437;SDS011;64015;49.392;15.582;2023-01-20T13:14:54;7.28;;;3.97;;
75437;SDS011;64015;49.392;15.582;2023-01-20T13:17:30;7.20;;;3.03;;
75437;SDS011;64015;49.392;15.582;2023-01-20T13:20:14;8.30;;;4.40;;
75437;SDS011;64015;49.392;15.582;2023-01-20T13:22:52;8.93;;;3.83;;
75437;SDS011;64015;49.392;15.582;2023-01-20T13:25:19;9.82;;;5.10;;
75437;SDS011;64015;49.392;15.582;2023-01-20T13:27:47;9.95;;;4.05;;
75437;SDS011;64015;49.392;15.582;2023-01-20T13:33:03;12.55;;;4.85;;
75437;SDS011;64015;49.392;15.582;2023-01-20T13:38:02;7.18;;;3.42;;
75437;SDS011;64015;49.392;15.582;2023-01-20T13:43:00;7.55;;;3.30;;
75437;SDS011;64015;49.392;15.582;2023-01-20T13:45:27;8.98;;;3.88;;
75437;SDS011;64015;49.392;15.582;2023-01-20T13:53:00;8.38;;;3.67;;
75437;SDS011;64015;49.392;15.582;2023-01-20T14:00:39;8.70;;;3.92;;
75437;SDS011;64015;49.392;15.582;2023-01-20T14:05:48;5.22;;;2.75;;
75437;SDS011;64015;49.392;15.582;2023-01-20T14:08:15;11.48;;;4.50;;
75437;SDS011;64015;49.392;15.582;2023-01-20T14:10:41;8.07;;;4.00;;
75437;SDS011;64015;49.392;15.582;2023-01-20T14:13:08;7.25;;;3.60;;
75437;SDS011;64015;49.392;15.582;2023-01-20T14:15:47;8.07;;;3.72;;
75437;SDS011;64015;49.392;15.582;2023-01-20T14:18:18;11.80;;;3.60;;
75437;SDS011;64015;49.392;15.582;2023-01-20T14:20:59;7.57;;;3.83;;
75437;SDS011;64015;49.392;15.582;2023-01-20T14:23:43;7.30;;;3.67;;
75437;SDS011;64015;49.392;15.582;2023-01-20T14:26:11;9.40;;;3.83;;
75437;SDS011;64015;49.392;15.582;2023-01-20T14:28:59;8.38;;;3.72;;
75437;SDS011;64015;49.392;15.582;2023-01-20T14:31:28;10.77;;;4.70;;
75437;SDS011;64015;49.392;15.582;2023-01-20T14:33:56;9.57;;;4.50;;
75437;SDS011;64015;49.392;15.582;2023-01-20T14:36:25;9.27;;;4.20;;
75437;SDS011;64015;49.392;15.582;2023-01-20T14:38:55;9.82;;;4.35;;
75437;SDS011;64015;49.392;15.582;2023-01-20T14:44:18;9.90;;;4.10;;
75437;SDS011;64015;49.392;15.582;2023-01-20T14:46:46;10.32;;;4.10;;
75437;SDS011;64015;49.392;15.582;2023-01-20T14:49:14;10.32;;;4.60;;
75437;SDS011;64015;49.392;15.582;2023-01-20T14:51:44;8.90;;;4.57;;
75437;SDS011;64015;49.392;15.582;2023-01-20T14:56:57;7.20;;;3.78;;
75437;SDS011;64015;49.392;15.582;2023-01-20T14:59:24;8.07;;;3.40;;
75437;SDS011;64015;49.392;15.582;2023-01-20T15:01:54;11.23;;;4.53;;
75437;SDS011;64015;49.392;15.582;2023-01-20T15:04:26;8.15;;;4.38;;
75437;SDS011;64015;49.392;15.582;2023-01-20T15:06:59;8.27;;;4.40;;
75437;SDS011;64015;49.392;15.582;2023-01-20T15:09:27;9.60;;;4.53;;
75437;SDS011;64015;49.392;15.582;2023-01-20T15:17:31;11.52;;;5.57;;
75437;SDS011;64015;49.392;15.582;2023-01-20T15:19:57;10.57;;;4.85;;
75437;SDS011;64015;49.392;15.582;2023-01-20T15:22:24;12.65;;;4.57;;
75437;SDS011;64015;49.392;15.582;2023-01-20T15:24:51;12.10;;;5.80;;
75437;SDS011;64015;49.392;15.582;2023-01-20T15:27:19;12.05;;;4.78;;
75437;SDS011;64015;49.392;15.582;2023-01-20T15:29:58;10.75;;;5.25;;
75437;SDS011;64015;49.392;15.582;2023-01-20T15:32:36;14.07;;;6.22;;
75437;SDS011;64015;49.392;15.582;2023-01-20T15:35:01;15.65;;;6.13;;
75437;SDS011;64015;49.392;15.582;2023-01-20T15:37:27;11.85;;;5.75;;
75437;SDS011;64015;49.392;15.582;2023-01-20T15:39:55;13.38;;;6.00;;
75437;SDS011;64015;49.392;15.582;2023-01-20T15:42:20;14.73;;;6.03;;
75437;SDS011;64015;49.392;15.582;2023-01-20T15:47:18;11.18;;;5.18;;
75437;SDS011;64015;49.392;15.582;2023-01-20T15:49:46;9.48;;;5.75;;
75437;SDS011;64015;49.392;15.582;2023-01-20T15:52:12;9.60;;;5.22;;
75437;SDS011;64015;49.392;15.582;2023-01-20T15:54:38;14.52;;;5.40;;
75437;SDS011;64015;49.392;15.582;2023-01-20T15:57:08;14.40;;;6.30;;
75437;SDS011;64015;49.392;15.582;2023-01-20T15:59:36;15.43;;;6.28;;
75437;SDS011;64015;49.392;15.582;2023-01-20T16:02:02;14.15;;;6.93;;
75437;SDS011;64015;49.392;15.582;2023-01-20T16:04:29;16.00;;;7.03;;
75437;SDS011;64015;49.392;15.582;2023-01-20T16:06:55;17.98;;;8.60;;
75437;SDS011;64015;49.392;15.582;2023-01-20T16:09:25;22.95;;;9.77;;
75437;SDS011;64015;49.392;15.582;2023-01-20T16:11:58;17.00;;;6.90;;
75437;SDS011;64015;49.392;15.582;2023-01-20T16:14:39;15.00;;;6.03;;
75437;SDS011;64015;49.392;15.582;2023-01-20T16:17:18;14.48;;;6.78;;
75437;SDS011;64015;49.392;15.582;2023-01-20T16:19:46;13.77;;;6.53;;
75437;SDS011;64015;49.392;15.582;2023-01-20T16:22:12;15.70;;;7.60;;
75437;SDS011;64015;49.392;15.582;2023-01-20T16:24:38;16.55;;;6.72;;
75437;SDS011;64015;49.392;15.582;2023-01-20T16:27:12;16.95;;;6.57;;
75437;SDS011;64015;49.392;15.582;2023-01-20T16:29:48;15.13;;;6.70;;
75437;SDS011;64015;49.392;15.582;2023-01-20T16:32:13;13.25;;;6.35;;
75437;SDS011;64015;49.392;15.582;2023-01-20T16:34:39;16.48;;;6.88;;
75437;SDS011;64015;49.392;15.582;2023-01-20T16:37:05;17.10;;;6.70;;
75437;SDS011;64015;49.392;15.582;2023-01-20T16:39:31;16.48;;;6.45;;
75437;SDS011;64015;49.392;15.582;2023-01-20T16:41:57;14.65;;;6.50;;
75437;SDS011;64015;49.392;15.582;2023-01-20T16:44:23;10.75;;;6.13;;
75437;SDS011;64015;49.392;15.582;2023-01-20T16:46:49;12.57;;;5.85;;
75437;SDS011;64015;49.392;15.582;2023-01-20T16:49:15;14.38;;;6.53;;
75437;SDS011;64015;49.392;15.582;2023-01-20T16:51:42;13.38;;;7.03;;